Time;durP1;ratioP1;P1;durP2;ratioP2;P2;SDS_P1;SDS_P2;PMS_P1;PMS_P2;Temp;Humidity;BMP_temperature;BMP_pressure;BME280_temperature;BME280_humidity;BME280_pressure;Samples;Min_cycle;Max_cycle;Signal;HPM_P1;HPM_P2
2023/01/15 00:01:58;;;;;;;84.20;52.40;;;;;;;-0.50;83.44;98408.13;89145;1262;22548;-71
2023/01/15 00:04:02;;;;;;;85.60;51.70;;;;;;;-0.51;83.32;98412.62;89105;1270;98639;-70
2023/01/15 00:06:04;;;;;;;89.40;54.30;;;;;;;-0.52;83.32;98405.90;88997;1269;22703;-71
2023/01/15 00:08:05;;;;;;;89.10;52.80;;;;;;;-0.52;83.13;98401.41;88732;1272;99415;-69
2023/01/15 00:10:08;;;;;;;89.30;53.50;;;;;;;-0.52;83.36;98391.58;89141;1270;22529;-70
2023/01/15 00:12:09;;;;;;;90.10;52.60;;;;;;;-0.53;83.34;98387.63;89181;1264;22638;-73
2023/01/15 00:14:11;;;;;;;93.10;52.30;;;;;;;-0.52;83.48;98386.08;89025;1271;98927;-72
2023/01/15 00:16:16;;;;;;;80.40;50.40;;;;;;;-0.53;83.41;98382.96;89311;1261;25543;-71
2023/01/15 00:18:18;;;;;;;80.70;52.50;;;;;;;-0.56;83.36;98375.57;89278;1262;24458;-70
2023/01/15 00:20:20;;;;;;;84.60;48.70;;;;;;;-0.51;83.30;98379.99;89058;1260;99651;-71
2023/01/15 00:22:22;;;;;;;94.50;49.60;;;;;;;-0.51;83.31;98378.79;89175;1270;28386;-70
2023/01/15 00:29:04;;;;;;;83.90;46.40;;;;;;;-0.54;83.49;98372.80;89133;1270;25258;-71
2023/01/15 00:31:06;;;;;;;76.20;46.30;;;;;;;-0.55;83.23;98375.22;88939;1269;22593;-71
2023/01/15 00:33:09;;;;;;;79.30;45.10;;;;;;;-0.56;83.24;98371.44;89013;1270;100171;-71
2023/01/15 00:35:16;;;;;;;76.90;45.30;;;;;;;-0.58;83.27;98367.33;89163;1270;22562;-71
2023/01/15 00:37:18;;;;;;;85.40;46.70;;;;;;;-0.58;83.40;98365.77;88898;1263;22549;-71
2023/01/15 00:39:20;;;;;;;74.50;44.70;;;;;;;-0.58;83.36;98359.05;88913;1263;99299;-71
2023/01/15 00:41:22;;;;;;;72.50;42.90;;;;;;;-0.58;83.44;98358.17;88906;1271;26609;-71
2023/01/15 00:43:24;;;;;;;71.90;45.80;;;;;;;-0.57;83.41;98354.02;88927;1270;24265;-71
2023/01/15 00:45:25;;;;;;;73.50;44.20;;;;;;;-0.55;83.59;98350.38;89046;1266;99483;-70
2023/01/15 00:47:27;;;;;;;70.70;41.20;;;;;;;-0.55;83.50;98351.41;88963;1271;24443;-71
2023/01/15 00:49:29;;;;;;;69.20;40.10;;;;;;;-0.55;83.49;98346.57;88930;1268;22666;-72
2023/01/15 00:51:30;;;;;;;65.80;41.50;;;;;;;-0.55;83.35;98343.12;88971;1270;99456;-72
2023/01/15 00:53:32;;;;;;;63.00;40.10;;;;;;;-0.53;83.47;98336.72;88890;1271;22539;-71
2023/01/15 00:55:34;;;;;;;70.10;41.40;;;;;;;-0.51;83.44;98326.17;88793;1274;22540;-71
2023/01/15 00:57:36;;;;;;;63.70;41.20;;;;;;;-0.49;83.57;98325.63;89061;1268;99578;-72
2023/01/15 00:59:37;;;;;;;64.20;39.60;;;;;;;-0.49;83.53;98325.45;89147;1270;24387;-71
2023/01/15 01:01:39;;;;;;;64.90;39.10;;;;;;;-0.48;83.53;98322.67;88973;1269;22913;-72
2023/01/15 01:03:41;;;;;;;62.60;40.10;;;;;;;-0.47;83.58;98319.90;88752;1273;99202;-71
2023/01/15 01:05:43;;;;;;;67.40;40.30;;;;;;;-0.47;83.62;98315.05;88991;1270;22534;-71
2023/01/15 01:07:45;;;;;;;58.80;36.20;;;;;;;-0.46;83.68;98309.35;88743;1270;231990;-71
2023/01/15 01:09:47;;;;;;;63.50;38.00;;;;;;;-0.43;83.62;98307.07;89081;1269;99477;-73
2023/01/15 01:11:49;;;;;;;61.20;37.20;;;;;;;-0.40;83.77;98304.77;89136;1270;25345;-72
2023/01/15 01:13:52;;;;;;;59.30;34.30;;;;;;;-0.37;83.61;98302.48;89069;1270;22639;-70
2023/01/15 01:15:54;;;;;;;56.60;33.50;;;;;;;-0.33;83.73;98298.80;88818;1271;98814;-73
2023/01/15 01:17:56;;;;;;;55.60;33.60;;;;;;;-0.30;83.83;98293.41;89038;1269;23108;-70
2023/01/15 01:19:57;;;;;;;55.30;33.60;;;;;;;-0.28;83.71;98294.06;89090;1274;22555;-71
2023/01/15 01:21:59;;;;;;;57.70;33.70;;;;;;;-0.24;83.83;98289.52;89033;1268;99038;-71
2023/01/15 01:24:01;;;;;;;50.00;30.80;;;;;;;-0.24;83.80;98284.34;89015;1272;22617;-70
2023/01/15 01:26:03;;;;;;;48.90;28.90;;;;;;;-0.19;83.84;98282.53;88995;1270;98546;-71
2023/01/15 01:28:04;;;;;;;46.30;29.50;;;;;;;-0.18;83.68;98282.34;89000;1270;24745;-71
2023/01/15 01:30:07;;;;;;;43.90;28.50;;;;;;;-0.18;83.75;98278.54;88896;1260;25646;-71
2023/01/15 01:32:09;;;;;;;46.50;28.10;;;;;;;-0.15;83.84;98277.13;89098;1270;99504;-72
2023/01/15 01:34:12;;;;;;;47.60;29.80;;;;;;;-0.14;83.61;98270.38;89068;1272;22691;-72
2023/01/15 01:36:14;;;;;;;48.40;28.70;;;;;;;-0.12;83.94;98264.12;89033;1255;25307;-73
2023/01/15 01:38:16;;;;;;;43.70;27.30;;;;;;;-0.14;83.80;98255.01;88900;1272;101118;-71
2023/01/15 01:40:18;;;;;;;43.50;27.00;;;;;;;-0.10;83.72;98252.67;89128;1270;22524;-70
2023/01/15 01:42:20;;;;;;;46.20;28.50;;;;;;;-0.08;83.86;98247.14;89172;1262;22519;-69
2023/01/15 01:44:31;;;;;;;45.60;27.50;;;;;;;-0.07;83.78;98247.10;88858;1271;99439;-71
2023/01/15 01:46:35;;;;;;;45.10;27.30;;;;;;;-0.05;83.87;98242.93;89279;1270;22622;-71
2023/01/15 01:48:37;;;;;;;41.50;26.80;;;;;;;-0.03;83.84;98239.96;89013;1269;24273;-71
2023/01/15 01:50:39;;;;;;;42.20;26.50;;;;;;;-0.03;84.01;98235.64;88879;1273;99274;-71
2023/01/15 01:52:48;;;;;;;41.20;24.90;;;;;;;-0.01;83.84;98225.59;89154;1270;26533;-72
2023/01/15 01:54:51;;;;;;;44.00;25.80;;;;;;;0.01;83.78;98222.80;88987;1271;22560;-71
2023/01/15 01:56:53;;;;;;;37.60;24.60;;;;;;;0.02;83.78;98222.44;89083;1271;99096;-72
2023/01/15 01:58:55;;;;;;;44.60;25.80;;;;;;;0.02;83.77;98213.80;89112;1263;22585;-71
2023/01/15 02:00:58;;;;;;;48.90;26.90;;;;;;;-0.00;83.86;98210.39;89093;1265;22763;-71
2023/01/15 02:03:01;;;;;;;40.70;26.30;;;;;;;0.01;83.86;98208.80;88899;1256;99313;-71
2023/01/15 02:05:04;;;;;;;46.00;27.40;;;;;;;0.02;83.83;98204.13;89001;1271;22535;-71
2023/01/15 02:07:06;;;;;;;50.50;29.00;;;;;;;0.03;83.70;98202.04;89011;1272;22557;-71
2023/01/15 02:09:08;;;;;;;43.40;27.10;;;;;;;0.05;83.86;98199.75;89060;1262;98689;-71
2023/01/15 02:11:16;;;;;;;47.90;31.00;;;;;;;0.06;83.84;98200.42;89159;1270;25355;-70
2023/01/15 02:13:39;;;;;;;50.20;31.80;;;;;;;0.07;83.63;98198.48;88910;1270;26617;-70
2023/01/15 02:15:56;;;;;;;47.30;28.80;;;;;;;0.09;84.01;98191.56;88979;1272;99767;-70
2023/01/15 02:18:29;;;;;;;50.40;30.40;;;;;;;0.10;83.84;98194.30;89027;1270;22546;-70
2023/01/15 02:20:38;;;;;;;41.90;28.00;;;;;;;0.12;83.87;98195.64;89084;1269;99049;-70
2023/01/15 02:22:58;;;;;;;44.60;26.90;;;;;;;0.13;83.99;98197.70;89171;1271;24203;-69
2023/01/15 02:25:16;;;;;;;36.10;25.10;;;;;;;0.18;84.04;98192.60;89174;1270;22535;-70
2023/01/15 02:27:22;;;;;;;39.20;22.70;;;;;;;0.22;84.18;98185.78;89050;1269;99226;-71
2023/01/15 02:29:47;;;;;;;30.90;22.30;;;;;;;0.25;84.01;98190.73;89315;1271;25416;-71
2023/01/15 02:31:51;;;;;;;32.10;19.80;;;;;;;0.30;83.87;98180.10;89159;1270;23976;-71
2023/01/15 02:34:02;;;;;;;32.00;21.50;;;;;;;0.33;84.14;98177.61;88864;1272;100749;-71
2023/01/15 02:36:07;;;;;;;27.60;18.10;;;;;;;0.36;84.06;98182.40;89102;1269;25284;-71
2023/01/15 02:38:14;;;;;;;32.00;18.70;;;;;;;0.40;84.23;98186.65;89079;1268;99910;-71
2023/01/15 02:40:20;;;;;;;30.70;19.50;;;;;;;0.43;84.01;98186.23;89280;1270;22589;-72
2023/01/15 02:42:24;;;;;;;29.60;18.70;;;;;;;0.46;84.10;98184.11;89128;1269;22567;-71
2023/01/15 02:44:26;;;;;;;28.90;18.40;;;;;;;0.46;84.07;98175.30;89045;1273;98716;-72
2023/01/15 02:46:33;;;;;;;27.90;17.90;;;;;;;0.49;84.09;98178.50;89013;1270;25097;-72
2023/01/15 02:48:38;;;;;;;24.30;16.00;;;;;;;0.52;84.07;98180.52;89084;1270;22536;-72
2023/01/15 02:50:44;;;;;;;30.20;16.60;;;;;;;0.53;84.11;98175.84;89080;1273;98053;-72
2023/01/15 02:52:51;;;;;;;24.60;16.20;;;;;;;0.55;84.05;98174.59;89119;1271;25023;-72
2023/01/15 02:55:09;;;;;;;25.70;15.70;;;;;;;0.55;84.11;98165.27;88922;1265;25306;-71
2023/01/15 02:57:14;;;;;;;30.30;17.20;;;;;;;0.55;84.01;98168.73;88942;1269;98272;-70
2023/01/15 02:59:29;;;;;;;22.80;15.70;;;;;;;0.54;84.11;98168.23;88981;1271;24713;-72
2023/01/15 03:01:35;;;;;;;25.20;16.90;;;;;;;0.53;83.91;98172.21;89178;1270;22523;-71
2023/01/15 03:04:02;;;;;;;25.80;16.40;;;;;;;0.53;83.87;98170.14;88932;1271;99255;-72
2023/01/15 03:06:14;;;;;;;24.80;15.10;;;;;;;0.51;83.74;98170.70;89113;1269;22861;-71
2023/01/15 03:08:16;;;;;;;27.40;16.50;;;;;;;0.47;83.91;98167.99;89035;1269;99729;-71
2023/01/15 03:10:18;;;;;;;23.80;14.40;;;;;;;0.45;83.77;98171.33;89090;1270;24590;-71
2023/01/15 03:13:01;;;;;;;24.40;16.00;;;;;;;0.40;84.06;98166.59;88996;1272;22695;-71
2023/01/15 03:16:33;;;;;;;27.40;15.90;;;;;;;0.37;83.53;98161.14;89096;1254;99646;-71
2023/01/15 03:17:47;;;;;;;19.70;15.40;;;;;;;0.33;83.84;98157.40;89208;1266;25159;-71
2023/01/15 03:19:55;;;;;;;23.40;15.50;;;;;;;0.34;83.75;98163.26;89001;1270;22653;-71
2023/01/15 03:22:04;;;;;;;23.20;15.10;;;;;;;0.36;84.06;98159.27;89108;1270;99291;-71
2023/01/15 03:24:09;;;;;;;25.80;15.40;;;;;;;0.37;83.91;98153.71;89171;1268;22861;-71
2023/01/15 03:26:10;;;;;;;27.10;14.60;;;;;;;0.38;83.88;98147.80;89101;1270;98265;-71
2023/01/15 03:28:15;;;;;;;25.10;15.60;;;;;;;0.38;83.98;98144.52;89058;1270;22527;-72
2023/01/15 03:30:20;;;;;;;17.60;12.10;;;;;;;0.38;84.03;98143.48;89252;1269;24304;-71
2023/01/15 03:32:21;;;;;;;14.70;11.10;;;;;;;0.42;84.01;98138.22;88923;1273;99050;-72
2023/01/15 03:34:26;;;;;;;12.80;10.30;;;;;;;0.47;83.98;98142.41;89020;1270;25261;-71
2023/01/15 03:36:29;;;;;;;19.80;10.80;;;;;;;0.54;84.06;98144.54;88904;1267;25857;-71
2023/01/15 03:38:36;;;;;;;14.90;10.00;;;;;;;0.60;84.14;98140.42;88924;1270;99762;-71
2023/01/15 03:40:48;;;;;;;17.50;11.00;;;;;;;0.68;84.14;98143.02;88897;1267;23864;-72
2023/01/15 03:45:27;;;;;;;13.50;9.50;;;;;;;0.90;84.11;98138.73;88948;1270;98180;-72
2023/01/15 03:47:35;;;;;;;16.00;10.40;;;;;;;1.01;84.12;98134.15;89159;1266;22534;-72
2023/01/15 03:49:40;;;;;;;13.30;8.80;;;;;;;1.10;84.09;98137.74;89039;1269;24302;-72
2023/01/15 03:52:02;;;;;;;12.30;8.20;;;;;;;1.20;84.01;98136.14;88916;1264;98102;-71
2023/01/15 03:54:10;;;;;;;15.50;8.30;;;;;;;1.36;84.17;98135.40;89037;1267;25546;-71
2023/01/15 03:56:32;;;;;;;10.80;7.10;;;;;;;1.51;84.10;98133.98;89073;1270;98300;-71
2023/01/15 03:58:36;;;;;;;9.90;6.80;;;;;;;1.72;83.89;98138.84;89031;1270;22530;-71
2023/01/15 04:00:44;;;;;;;11.80;6.90;;;;;;;1.87;84.03;98134.79;89066;1264;25297;-71
2023/01/15 04:02:47;;;;;;;9.10;6.10;;;;;;;2.00;83.77;98131.67;89001;1270;97866;-72
2023/01/15 04:04:52;;;;;;;9.90;5.60;;;;;;;2.13;83.63;98127.69;88870;1270;22960;-71
2023/01/15 04:06:54;;;;;;;14.10;5.20;;;;;;;2.28;83.43;98122.94;89099;1264;25403;-71
2023/01/15 04:08:58;;;;;;;9.90;4.70;;;;;;;2.45;83.52;98109.44;89035;1270;99450;-70
2023/01/15 04:11:00;;;;;;;5.30;4.00;;;;;;;2.62;83.49;98104.94;88959;1267;22724;-71
2023/01/15 04:13:02;;;;;;;6.50;4.40;;;;;;;2.81;83.39;98105.77;89030;1270;25470;-71
2023/01/15 04:15:05;;;;;;;6.50;3.80;;;;;;;2.96;83.24;98098.35;88958;1270;99200;-70
2023/01/15 04:17:07;;;;;;;5.40;4.30;;;;;;;3.08;82.97;98093.11;88849;1273;22528;-71
2023/01/15 04:19:08;;;;;;;4.10;3.70;;;;;;;3.20;83.03;98088.92;89062;1265;22562;-71
2023/01/15 04:21:10;;;;;;;4.60;3.80;;;;;;;3.31;82.95;98083.86;89059;1270;98911;-72
2023/01/15 04:23:12;;;;;;;4.20;3.60;;;;;;;3.41;82.59;98078.52;89099;1267;22587;-71
2023/01/15 04:25:13;;;;;;;10.00;3.80;;;;;;;3.51;82.60;98072.63;88967;1270;22545;-71
2023/01/15 04:27:15;;;;;;;4.10;3.70;;;;;;;3.58;82.40;98066.10;89024;1269;99982;-72
2023/01/15 04:29:17;;;;;;;4.80;3.50;;;;;;;3.67;82.30;98062.33;89067;1266;24339;-71
2023/01/15 04:31:18;;;;;;;4.30;3.50;;;;;;;3.76;82.07;98058.54;89039;1264;22529;-72
2023/01/15 04:33:20;;;;;;;4.30;3.90;;;;;;;3.85;82.09;98054.20;88939;1270;99300;-72
2023/01/15 04:35:21;;;;;;;3.70;3.40;;;;;;;3.93;81.92;98052.02;89040;1264;25352;-71
2023/01/15 04:37:23;;;;;;;6.90;3.70;;;;;;;4.00;81.91;98055.27;88999;1270;25506;-71
2023/01/15 04:39:25;;;;;;;5.80;4.20;;;;;;;3.99;81.87;98041.04;89056;1270;98759;-71
2023/01/15 04:44:05;;;;;;;4.10;3.70;;;;;;;4.07;81.72;98040.73;89135;1264;22933;-70
2023/01/15 04:46:07;;;;;;;9.90;3.60;;;;;;;4.08;81.58;98038.77;88869;1270;22562;-72
2023/01/15 04:48:08;;;;;;;5.10;4.60;;;;;;;4.09;81.63;98039.46;89118;1270;22631;-71
2023/01/15 04:50:10;;;;;;;7.90;5.40;;;;;;;4.09;81.51;98034.42;88801;1272;99246;-72
2023/01/15 04:52:12;;;;;;;14.70;6.50;;;;;;;4.09;81.45;98034.75;88910;1269;23599;-72
2023/01/15 04:54:15;;;;;;;10.80;7.50;;;;;;;4.08;81.38;98030.77;89024;1267;22530;-71
2023/01/15 04:56:17;;;;;;;8.80;6.20;;;;;;;4.08;81.46;98030.09;88963;1267;98315;-71
2023/01/15 04:58:18;;;;;;;7.40;5.30;;;;;;;4.07;81.47;98028.75;89027;1270;23663;-71
2023/01/15 05:00:21;;;;;;;7.90;5.00;;;;;;;4.07;81.31;98026.30;89059;1270;22583;-70
2023/01/15 05:02:23;;;;;;;5.30;4.50;;;;;;;4.08;81.21;98025.23;88989;1270;98905;-70
2023/01/15 05:04:25;;;;;;;7.00;4.90;;;;;;;4.09;81.31;98023.29;89022;1263;23465;-70
2023/01/15 05:06:27;;;;;;;8.30;4.90;;;;;;;4.09;81.21;98020.31;89052;1270;22768;-73
2023/01/15 05:08:29;;;;;;;5.80;4.00;;;;;;;4.09;81.24;98015.46;88724;1272;97736;-71
2023/01/15 05:10:31;;;;;;;5.30;4.00;;;;;;;4.08;81.13;98013.05;88929;1264;22631;-71
2023/01/15 05:12:33;;;;;;;5.10;4.20;;;;;;;4.09;81.10;98013.70;89061;1273;24260;-71
2023/01/15 05:14:35;;;;;;;5.20;3.70;;;;;;;4.09;81.22;98018.77;88806;1271;98762;-71
2023/01/15 05:16:37;;;;;;;5.10;4.60;;;;;;;4.07;81.21;98014.81;89050;1263;22534;-70
2023/01/15 05:18:40;;;;;;;5.50;4.40;;;;;;;4.06;81.24;98008.45;88927;1273;23706;-71
2023/01/15 05:20:42;;;;;;;5.50;4.50;;;;;;;4.03;81.04;98002.45;88907;1267;99365;-71
2023/01/15 05:22:44;;;;;;;4.30;3.70;;;;;;;4.02;81.37;98004.77;88938;1272;22924;-71
2023/01/15 05:24:45;;;;;;;4.90;4.20;;;;;;;3.99;81.20;98002.98;89008;1270;25967;-71
2023/01/15 05:26:47;;;;;;;6.40;4.30;;;;;;;3.95;81.16;98001.73;88939;1269;99244;-71
2023/01/15 05:28:52;;;;;;;5.70;4.20;;;;;;;3.87;81.25;97994.86;89014;1264;25347;-71
2023/01/15 05:30:54;;;;;;;4.60;4.20;;;;;;;3.86;81.33;97997.88;89023;1270;22695;-71
2023/01/15 05:32:56;;;;;;;5.30;3.70;;;;;;;3.82;81.40;97988.83;88865;1270;99048;-71
2023/01/15 05:34:57;;;;;;;6.20;3.70;;;;;;;3.79;81.32;97988.77;89086;1269;23310;-71
2023/01/15 05:36:59;;;;;;;5.00;3.50;;;;;;;3.76;81.35;97992.00;89081;1270;24873;-72
2023/01/15 05:39:01;;;;;;;4.40;3.90;;;;;;;3.72;81.32;97993.16;88947;1270;98772;-71
2023/01/15 05:41:47;;;;;;;8.10;3.60;;;;;;;3.70;81.55;97986.51;89105;1270;24378;-71
2023/01/15 05:43:25;;;;;;;4.70;4.20;;;;;;;3.67;81.53;97987.63;89014;1269;22529;-71
2023/01/15 05:45:27;;;;;;;6.60;3.90;;;;;;;3.65;81.23;97986.66;89043;1268;98887;-72
2023/01/15 05:47:29;;;;;;;3.60;3.30;;;;;;;3.64;81.26;97975.94;89071;1270;24180;-70
2023/01/15 05:49:31;;;;;;;4.90;3.70;;;;;;;3.61;81.40;97973.61;89097;1269;25313;-70
2023/01/15 05:51:35;;;;;;;4.50;3.40;;;;;;;3.57;81.43;97970.27;88882;1270;98673;-71
2023/01/15 05:53:36;;;;;;;4.50;3.60;;;;;;;3.55;81.36;97966.71;89308;1269;22562;-72
2023/01/15 05:55:38;;;;;;;5.60;3.90;;;;;;;3.52;81.31;97965.06;89020;1270;22533;-71
2023/01/15 05:57:40;;;;;;;4.80;4.00;;;;;;;3.53;81.57;97960.84;88899;1270;98199;-70
2023/01/15 05:59:41;;;;;;;4.00;3.60;;;;;;;3.59;81.49;97962.91;89051;1258;25342;-71
2023/01/15 06:01:43;;;;;;;5.30;4.00;;;;;;;3.64;81.45;97961.84;89087;1269;24403;-71
2023/01/15 06:03:46;;;;;;;5.50;4.00;;;;;;;3.69;81.22;97958.20;88965;1270;97819;-70
2023/01/15 06:05:51;;;;;;;6.10;3.60;;;;;;;3.73;81.18;97957.69;89042;1270;22668;-71
2023/01/15 06:07:53;;;;;;;3.90;3.60;;;;;;;3.81;81.16;97960.70;89036;1269;22740;-72
2023/01/15 06:09:55;;;;;;;8.10;3.40;;;;;;;3.86;81.10;97957.22;88985;1262;98781;-72
2023/01/15 06:11:56;;;;;;;9.00;3.40;;;;;;;3.92;81.03;97956.11;89090;1267;22571;-70
2023/01/15 06:13:59;;;;;;;3.60;3.30;;;;;;;3.97;80.86;97950.89;88933;1270;22549;-72
2023/01/15 06:16:01;;;;;;;3.60;3.30;;;;;;;4.02;80.88;97953.14;88855;1271;97876;-72
2023/01/15 06:18:03;;;;;;;4.20;3.50;;;;;;;4.06;80.78;97955.07;89141;1261;22937;-71
2023/01/15 06:20:05;;;;;;;4.40;3.90;;;;;;;4.10;80.82;97959.27;89033;1271;22526;-72
2023/01/15 06:22:07;;;;;;;4.30;3.80;;;;;;;4.12;80.72;97958.52;89079;1262;22563;-70
2023/01/15 06:24:09;;;;;;;3.70;3.30;;;;;;;4.16;80.75;97953.30;89146;1265;22664;-72
2023/01/15 06:26:16;;;;;;;6.50;3.60;;;;;;;4.20;80.72;97951.41;89012;1270;99150;-72
2023/01/15 06:28:18;;;;;;;9.80;3.60;;;;;;;4.25;80.83;97948.80;89106;1270;22566;-71
2023/01/15 06:30:20;;;;;;;4.50;4.10;;;;;;;4.30;80.52;97947.55;89072;1270;22810;-71
2023/01/15 06:32:21;;;;;;;3.90;3.50;;;;;;;4.33;80.52;97939.61;89009;1269;98904;-71
2023/01/15 06:34:23;;;;;;;3.40;3.10;;;;;;;4.38;80.47;97940.82;89074;1267;22556;-72
2023/01/15 06:36:26;;;;;;;3.70;3.40;;;;;;;4.39;80.53;97939.34;89167;1265;24476;-71
2023/01/15 06:38:27;;;;;;;4.40;3.70;;;;;;;4.42;80.51;97943.41;88793;1272;98946;-71
2023/01/15 06:40:29;;;;;;;6.30;3.60;;;;;;;4.45;80.38;97946.45;89049;1269;23255;-71
2023/01/15 06:47:21;;;;;;;5.70;3.60;;;;;;;4.53;80.22;97949.92;89088;1270;24211;-69
2023/01/15 06:49:23;;;;;;;7.30;3.80;;;;;;;4.57;80.28;97948.38;89149;1269;22646;-70
2023/01/15 06:51:24;;;;;;;3.80;3.50;;;;;;;4.59;80.19;97940.84;89008;1270;98981;-70
2023/01/15 06:53:26;;;;;;;4.20;3.80;;;;;;;4.64;80.23;97935.42;89060;1270;22580;-70
2023/01/15 06:55:27;;;;;;;4.10;3.70;;;;;;;4.64;80.11;97927.41;89097;1269;22654;-70
2023/01/15 06:57:29;;;;;;;3.60;3.30;;;;;;;4.68;80.17;97924.10;88997;1268;99143;-70
2023/01/15 06:59:31;;;;;;;4.30;3.20;;;;;;;4.72;80.04;97923.61;88930;1270;22676;-70
2023/01/15 07:01:33;;;;;;;4.60;3.50;;;;;;;4.75;79.98;97930.07;89099;1267;23007;-71
2023/01/15 07:03:35;;;;;;;3.80;3.40;;;;;;;4.77;79.96;97928.08;89011;1254;99091;-71
2023/01/15 07:05:38;;;;;;;3.80;3.50;;;;;;;4.77;79.91;97923.37;89124;1270;22480;-69
2023/01/15 07:07:39;;;;;;;3.30;3.00;;;;;;;4.79;79.92;97925.56;89083;1263;22700;-70
2023/01/15 07:09:41;;;;;;;6.70;3.70;;;;;;;4.81;79.82;97926.35;88912;1267;98866;-71
2023/01/15 07:11:49;;;;;;;6.50;3.50;;;;;;;4.83;79.81;97924.88;88847;1263;25407;-71
2023/01/15 07:14:04;;;;;;;4.00;3.60;;;;;;;4.85;79.88;97927.56;89062;1267;25319;-70
2023/01/15 07:16:25;;;;;;;3.80;3.10;;;;;;;4.87;79.81;97921.60;89059;1269;22565;-72
2023/01/15 07:18:29;;;;;;;9.80;4.00;;;;;;;4.89;79.75;97927.77;89062;1270;22664;-70
2023/01/15 07:20:30;;;;;;;7.30;3.20;;;;;;;4.91;79.66;97924.54;88998;1267;98751;-70
2023/01/15 07:22:32;;;;;;;4.50;3.50;;;;;;;4.94;79.63;97925.45;89095;1262;22562;-70
2023/01/15 07:24:34;;;;;;;4.60;3.30;;;;;;;4.97;79.50;97933.00;89083;1269;22619;-71
2023/01/15 07:26:36;;;;;;;6.50;3.60;;;;;;;4.99;79.64;97924.92;89051;1269;100099;-68
2023/01/15 07:28:37;;;;;;;3.50;3.20;;;;;;;4.99;79.50;97921.46;89029;1263;25321;-71
2023/01/15 07:30:39;;;;;;;7.80;3.30;;;;;;;5.00;79.56;97923.28;89112;1270;22718;-70
2023/01/15 07:32:40;;;;;;;3.80;3.40;;;;;;;5.02;79.55;97924.45;89238;1267;99252;-70
2023/01/15 07:34:42;;;;;;;3.90;3.30;;;;;;;5.02;79.57;97921.09;89141;1269;23048;-71
2023/01/15 07:36:44;;;;;;;3.80;3.30;;;;;;;5.03;79.42;97920.20;89052;1255;24369;-70
2023/01/15 07:38:46;;;;;;;4.40;3.70;;;;;;;5.04;79.53;97920.52;89010;1261;98904;-70
2023/01/15 07:49:44;;;;;;;3.10;2.80;;;;;;;5.05;79.50;97925.36;89179;1270;25391;-71
2023/01/15 07:50:20;;;;;;;7.50;3.60;;;;;;;5.12;79.27;97925.05;89016;1260;99084;-71
2023/01/15 07:52:21;;;;;;;3.50;3.20;;;;;;;5.14;79.35;97927.23;89310;1263;22566;-70
2023/01/15 07:54:23;;;;;;;4.00;3.60;;;;;;;5.15;79.34;97932.92;89066;1269;24644;-70
2023/01/15 07:56:25;;;;;;;4.80;3.00;;;;;;;5.15;79.36;97933.27;88935;1264;99148;-71
2023/01/15 07:58:26;;;;;;;7.00;3.50;;;;;;;5.15;79.31;97926.68;88950;1264;22624;-71
2023/01/15 08:00:28;;;;;;;4.90;3.70;;;;;;;5.14;79.39;97924.46;89057;1265;26748;-70
2023/01/15 08:02:30;;;;;;;5.20;3.70;;;;;;;5.14;79.41;97936.12;89104;1269;98706;-70
2023/01/15 08:04:31;;;;;;;6.50;3.40;;;;;;;5.13;79.29;97938.77;89149;1262;22714;-70
2023/01/15 08:06:33;;;;;;;3.90;3.50;;;;;;;5.13;79.36;97936.86;89151;1263;22555;-70
2023/01/15 08:08:35;;;;;;;5.40;3.70;;;;;;;5.09;79.44;97930.58;89071;1265;100359;-70
2023/01/15 08:15:11;;;;;;;3.80;3.40;;;;;;;5.14;79.29;97929.67;89176;1263;24359;-70
2023/01/15 08:15:18;;;;;;;5.80;3.40;;;;;;;5.23;79.38;97912.56;89074;1261;84391;-71
2023/01/15 08:17:20;;;;;;;4.60;3.20;;;;;;;5.26;79.53;97914.33;89060;1270;22692;-70
2023/01/15 08:19:23;;;;;;;4.00;3.60;;;;;;;5.29;79.35;97912.81;89291;1270;22624;-72
2023/01/15 08:21:25;;;;;;;3.80;3.50;;;;;;;5.33;79.40;97911.27;89311;1271;99012;-71
2023/01/15 08:23:27;;;;;;;7.00;3.90;;;;;;;5.36;79.38;97917.22;89535;1269;22578;-71
2023/01/15 08:25:29;;;;;;;4.60;3.50;;;;;;;5.38;79.24;97915.05;89450;1271;23663;-71
2023/01/15 08:27:30;;;;;;;4.70;4.00;;;;;;;5.40;79.30;97914.97;89287;1271;97725;-71
2023/01/15 08:29:32;;;;;;;4.50;3.90;;;;;;;5.40;79.31;97915.63;89402;1264;22625;-70
2023/01/15 08:31:34;;;;;;;5.50;3.60;;;;;;;5.41;79.37;97910.90;89405;1265;22585;-71
2023/01/15 08:33:35;;;;;;;4.90;4.20;;;;;;;5.42;79.42;97906.17;89210;1271;97885;-71
2023/01/15 08:35:38;;;;;;;6.70;3.80;;;;;;;5.44;79.35;97904.33;89522;1264;22533;-71
2023/01/15 08:37:41;;;;;;;5.80;3.70;;;;;;;5.44;79.40;97902.75;89488;1264;23567;-70
2023/01/15 08:39:44;;;;;;;11.70;3.30;;;;;;;5.45;79.29;97905.13;89450;1269;97812;-70
2023/01/15 08:41:46;;;;;;;11.00;3.60;;;;;;;5.50;79.26;97906.50;89450;1267;22474;-70
2023/01/15 08:43:48;;;;;;;8.70;3.80;;;;;;;5.54;79.22;97912.44;89549;1270;22683;-71
2023/01/15 08:45:50;;;;;;;5.00;3.90;;;;;;;5.54;79.17;97909.96;89327;1268;99852;-71
2023/01/15 08:47:55;;;;;;;4.20;3.60;;;;;;;5.57;78.99;97912.80;89499;1266;22544;-71
2023/01/15 08:49:57;;;;;;;6.10;3.80;;;;;;;5.58;79.06;97909.95;89481;1269;33247;-70
2023/01/15 08:51:59;;;;;;;4.00;3.70;;;;;;;5.61;78.99;97907.02;89120;1264;98784;-71
2023/01/15 08:54:01;;;;;;;8.60;3.90;;;;;;;5.64;79.19;97907.79;89383;1269;22580;-70
2023/01/15 08:56:03;;;;;;;5.40;4.00;;;;;;;5.65;79.25;97905.99;89386;1270;25494;-71
2023/01/15 08:58:06;;;;;;;6.10;4.30;;;;;;;5.67;79.27;97905.59;89413;1267;25442;-71
2023/01/15 09:00:09;;;;;;;4.90;3.70;;;;;;;5.67;79.20;97905.20;89723;1263;24217;-70
2023/01/15 09:02:14;;;;;;;3.90;3.40;;;;;;;5.69;79.21;97906.01;89266;1270;99059;-72
2023/01/15 09:04:18;;;;;;;5.30;3.40;;;;;;;5.71;79.26;97910.44;89160;1273;24222;-71
2023/01/15 09:06:19;;;;;;;8.20;3.90;;;;;;;5.72;79.16;97910.54;89441;1263;25526;-69
2023/01/15 09:08:21;;;;;;;4.60;3.60;;;;;;;5.75;79.20;97903.11;89398;1270;99395;-71
2023/01/15 09:10:24;;;;;;;5.00;3.70;;;;;;;5.76;79.18;97905.82;89226;1273;22649;-70
2023/01/15 09:12:26;;;;;;;4.60;3.30;;;;;;;5.81;79.09;97902.32;89217;1258;22593;-70
2023/01/15 09:14:27;;;;;;;6.40;3.50;;;;;;;5.84;78.94;97898.31;89240;1267;100256;-70
2023/01/15 09:16:30;;;;;;;4.30;3.40;;;;;;;5.87;78.82;97899.42;89266;1265;22610;-70
2023/01/15 09:18:33;;;;;;;5.70;4.20;;;;;;;5.89;78.98;97895.33;89232;1264;22576;-70
2023/01/15 09:20:34;;;;;;;4.20;3.70;;;;;;;5.89;78.94;97896.18;89328;1268;99944;-70
2023/01/15 09:22:36;;;;;;;5.60;3.60;;;;;;;5.90;79.02;97892.63;89394;1265;22902;-71
2023/01/15 09:24:38;;;;;;;6.40;3.20;;;;;;;5.91;79.00;97889.66;89205;1270;22673;-70
2023/01/15 09:26:41;;;;;;;4.00;3.60;;;;;;;5.91;78.87;97881.79;89289;1265;98795;-72
2023/01/15 09:28:43;;;;;;;5.50;3.50;;;;;;;5.92;78.76;97881.91;89365;1270;24283;-71
2023/01/15 09:30:45;;;;;;;4.40;3.20;;;;;;;5.94;78.59;97875.20;89311;1266;22535;-70
2023/01/15 09:32:47;;;;;;;4.80;3.50;;;;;;;5.96;78.64;97868.66;89319;1269;98174;-70
2023/01/15 09:34:48;;;;;;;4.80;3.70;;;;;;;5.99;78.60;97868.73;89290;1254;25730;-70
2023/01/15 09:36:50;;;;;;;6.20;3.80;;;;;;;6.01;78.65;97870.73;89245;1270;27114;-71
2023/01/15 09:38:53;;;;;;;4.00;3.40;;;;;;;6.01;78.50;97872.98;89210;1264;99068;-71
2023/01/15 09:40:59;;;;;;;4.90;3.40;;;;;;;6.03;78.50;97875.17;89299;1262;22523;-71
2023/01/15 09:43:08;;;;;;;4.90;3.80;;;;;;;6.04;78.82;97868.13;89662;1269;24326;-70
2023/01/15 09:45:25;;;;;;;4.00;3.50;;;;;;;6.06;78.67;97865.95;89240;1265;100437;-70
2023/01/15 09:47:33;;;;;;;6.40;3.80;;;;;;;6.08;78.57;97865.02;89264;1270;25357;-71
2023/01/15 09:49:44;;;;;;;5.70;3.60;;;;;;;6.09;78.47;97859.71;89228;1271;22976;-70
2023/01/15 09:51:58;;;;;;;5.90;3.50;;;;;;;6.10;78.49;97859.32;89278;1269;98773;-70
2023/01/15 09:54:00;;;;;;;4.90;3.70;;;;;;;6.11;78.51;97859.64;89288;1270;25309;-71
2023/01/15 09:56:11;;;;;;;6.60;3.40;;;;;;;6.12;78.43;97855.05;89333;1262;24244;-70
2023/01/15 09:58:16;;;;;;;4.50;3.60;;;;;;;6.15;78.28;97862.75;89250;1270;22739;-70
2023/01/15 10:00:24;;;;;;;3.60;3.30;;;;;;;6.16;78.32;97862.50;89251;1273;22654;-71
2023/01/15 10:02:45;;;;;;;4.10;3.30;;;;;;;6.18;78.25;97860.69;89468;1269;99408;-70
2023/01/15 10:04:58;;;;;;;4.60;3.20;;;;;;;6.13;78.41;97853.38;89319;1269;22550;-70
2023/01/15 10:07:21;;;;;;;5.60;3.90;;;;;;;6.24;78.10;97858.11;89397;1269;24198;-71
2023/01/15 10:09:34;;;;;;;5.90;3.40;;;;;;;6.30;78.26;97853.13;89162;1269;98899;-70
2023/01/15 10:14:38;;;;;;;4.00;3.20;;;;;;;6.50;77.91;97855.79;89259;1269;97970;-71